createdAt,value
2018-06-24T00:01:10.957Z,15.90
2018-06-24T00:03:39.146Z,16.00
2018-06-24T00:06:07.436Z,16.10
2018-06-24T00:08:35.627Z,16.10
2018-06-24T00:11:03.871Z,16.20
2018-06-24T00:13:32.082Z,16.30
2018-06-24T00:16:00.294Z,16.20
2018-06-24T00:18:28.784Z,16.10
2018-06-24T00:20:56.988Z,16.10
2018-06-24T00:23:25.179Z,16.10
2018-06-24T00:25:53.418Z,16.00
2018-06-24T00:28:21.616Z,16.00
2018-06-24T00:30:49.850Z,16.10
2018-06-24T00:33:18.045Z,16.10
2018-06-24T00:35:46.263Z,16.00
2018-06-24T00:38:14.535Z,16.10
2018-06-24T00:40:42.748Z,16.10
2018-06-24T00:43:11.135Z,16.10
2018-06-24T00:45:39.331Z,16.10
2018-06-24T00:48:07.545Z,16.00
2018-06-24T00:50:35.744Z,16.00
2018-06-24T00:53:04.048Z,16.00
2018-06-24T00:55:32.353Z,16.00
2018-06-24T00:58:00.564Z,16.00
2018-06-24T01:00:28.760Z,16.00
2018-06-24T01:02:56.955Z,16.00
2018-06-24T01:05:25.211Z,16.00
2018-06-24T01:07:53.410Z,16.10
2018-06-24T01:10:21.601Z,16.20
2018-06-24T01:12:49.819Z,16.20
2018-06-24T01:15:18.010Z,16.10
2018-06-24T01:17:46.246Z,16.10
2018-06-24T01:20:14.463Z,16.10
2018-06-24T01:22:42.651Z,16.00
2018-06-24T01:25:10.848Z,16.00
2018-06-24T01:27:39.037Z,16.00
2018-06-24T01:30:07.234Z,16.00
2018-06-24T01:32:35.421Z,16.00
2018-06-24T01:35:03.632Z,16.00
2018-06-24T01:37:31.859Z,16.00
2018-06-24T01:40:00.072Z,16.00
2018-06-24T01:42:28.246Z,16.00
2018-06-24T01:44:56.459Z,16.00
2018-06-24T01:47:24.680Z,16.00
2018-06-24T01:49:52.870Z,16.00
2018-06-24T01:52:21.551Z,16.00
2018-06-24T01:54:49.774Z,16.00
2018-06-24T01:57:17.979Z,15.90
2018-06-24T01:59:46.185Z,15.90
2018-06-24T02:02:14.371Z,15.90
2018-06-24T02:04:42.822Z,15.90
2018-06-24T02:07:10.995Z,15.80
2018-06-24T02:09:39.180Z,15.70
2018-06-24T02:12:07.355Z,15.70
2018-06-24T02:14:35.657Z,15.60
2018-06-24T02:17:04.038Z,15.60
2018-06-24T02:19:32.253Z,15.70
2018-06-24T02:22:00.432Z,15.70
2018-06-24T02:24:28.606Z,15.70
2018-06-24T02:26:56.796Z,15.70
2018-06-24T02:29:24.970Z,15.70
2018-06-24T02:31:53.136Z,15.70
2018-06-24T02:34:21.319Z,15.70
2018-06-24T02:36:49.491Z,15.70
2018-06-24T02:39:17.922Z,15.80
2018-06-24T02:41:46.087Z,15.80
2018-06-24T02:44:14.307Z,15.80
2018-06-24T02:46:42.475Z,15.80
2018-06-24T02:49:10.665Z,15.90
2018-06-24T02:51:38.843Z,15.90
2018-06-24T02:54:07.040Z,15.90
2018-06-24T02:56:35.235Z,16.00
2018-06-24T02:59:03.427Z,15.90
2018-06-24T03:01:31.671Z,15.90
2018-06-24T03:03:59.891Z,16.00
2018-06-24T03:06:28.081Z,16.00
2018-06-24T03:08:56.326Z,16.00
2018-06-24T03:11:24.531Z,16.00
2018-06-24T03:13:52.875Z,16.00
2018-06-24T03:16:21.052Z,16.00
2018-06-24T03:18:49.258Z,16.00
2018-06-24T03:21:17.447Z,16.00
2018-06-24T03:23:45.646Z,16.00
2018-06-24T03:26:13.821Z,16.00
2018-06-24T03:28:42.029Z,15.90
2018-06-24T03:31:10.233Z,15.90
2018-06-24T03:33:38.461Z,15.90
2018-06-24T03:38:34.651Z,15.90
2018-06-24T03:41:02.834Z,15.90
2018-06-24T03:43:31.022Z,15.90
2018-06-24T03:45:59.254Z,15.90
2018-06-24T03:48:27.489Z,15.90
2018-06-24T03:50:55.725Z,15.90
2018-06-24T03:53:23.942Z,15.80
2018-06-24T03:58:20.052Z,15.90
2018-06-24T04:00:48.227Z,15.90
2018-06-24T04:03:16.404Z,15.90
2018-06-24T04:05:44.594Z,15.70
2018-06-24T04:08:12.770Z,15.70
2018-06-24T04:10:40.996Z,15.70
2018-06-24T04:13:09.170Z,15.60
2018-06-24T04:15:37.346Z,15.50
2018-06-24T04:18:05.791Z,15.50
2018-06-24T04:20:33.980Z,15.40
2018-06-24T04:23:02.176Z,15.30
2018-06-24T04:25:30.346Z,15.20
2018-06-24T04:27:58.588Z,15.40
2018-06-24T04:32:54.953Z,15.40
2018-06-24T04:35:23.142Z,15.40
2018-06-24T04:37:51.314Z,15.40
2018-06-24T04:42:54.102Z,15.30
2018-06-24T04:45:23.140Z,15.40
2018-06-24T04:47:51.314Z,15.40
2018-06-24T04:50:19.489Z,15.40
2018-06-24T04:52:47.667Z,15.60
2018-06-24T04:55:15.850Z,15.40
2018-06-24T04:57:44.066Z,15.50
2018-06-24T05:00:12.274Z,15.70
2018-06-24T05:02:40.470Z,15.80
2018-06-24T05:05:08.651Z,16.00
2018-06-24T05:10:11.474Z,15.80
2018-06-24T05:12:39.686Z,16.00
2018-06-24T05:15:07.878Z,16.00
2018-06-24T05:17:36.080Z,16.10
2018-06-24T05:20:04.355Z,16.10
2018-06-24T05:22:32.571Z,16.20
2018-06-24T05:25:00.815Z,16.20
2018-06-24T05:27:29.046Z,16.30
2018-06-24T05:29:57.178Z,16.10
2018-06-24T05:32:25.411Z,16.10
2018-06-24T05:34:53.610Z,16.10
2018-06-24T05:37:21.815Z,16.40
2018-06-24T05:39:50.010Z,16.80
2018-06-24T05:42:18.202Z,17.20
2018-06-24T05:44:46.394Z,17.70
2018-06-24T05:47:14.621Z,18.20
2018-06-24T05:49:42.805Z,18.60
2018-06-24T05:52:10.987Z,19.00
2018-06-24T05:54:39.189Z,19.50
2018-06-24T05:57:07.424Z,19.80
2018-06-24T05:59:35.626Z,20.20
2018-06-24T06:02:03.809Z,20.40
2018-06-24T06:04:32.010Z,20.70
2018-06-24T06:07:00.225Z,20.70
2018-06-24T06:09:28.799Z,21.00
2018-06-24T06:11:56.990Z,21.20
2018-06-24T06:14:25.186Z,21.50
2018-06-24T06:16:53.962Z,21.90
2018-06-24T06:19:22.229Z,21.80
2018-06-24T06:21:50.449Z,22.20
2018-06-24T06:24:18.639Z,22.40
2018-06-24T06:26:46.821Z,22.30
2018-06-24T06:29:15.033Z,21.80
2018-06-24T06:31:43.222Z,21.80
2018-06-24T06:34:11.399Z,22.10
2018-06-24T06:36:39.646Z,22.20
2018-06-24T06:39:08.890Z,21.90
2018-06-24T06:41:37.312Z,21.50
2018-06-24T06:44:05.978Z,21.30
2018-06-24T06:46:34.190Z,21.30
2018-06-24T06:49:02.385Z,21.70
2018-06-24T06:51:30.578Z,21.80
2018-06-24T06:53:58.782Z,22.00
2018-06-24T06:56:26.958Z,22.10
2018-06-24T06:58:55.122Z,22.30
2018-06-24T07:01:23.290Z,22.50
2018-06-24T07:03:51.513Z,22.90
2018-06-24T07:06:19.723Z,22.90
2018-06-24T07:08:47.894Z,22.80
2018-06-24T07:11:16.088Z,22.60
2018-06-24T07:13:44.352Z,22.40
2018-06-24T07:16:12.504Z,22.40
2018-06-24T07:18:40.697Z,22.40
2018-06-24T07:21:08.874Z,22.30
2018-06-24T07:23:37.046Z,22.30
2018-06-24T07:26:05.360Z,22.10
2018-06-24T07:28:33.567Z,21.00
2018-06-24T07:31:01.722Z,20.90
2018-06-24T07:33:29.959Z,21.00
2018-06-24T07:35:58.083Z,21.20
2018-06-24T07:38:26.325Z,21.20
2018-06-24T07:40:54.439Z,21.30
2018-06-24T07:43:22.629Z,21.50
2018-06-24T07:45:50.823Z,21.60
2018-06-24T07:48:19.023Z,21.00
2018-06-24T07:50:47.227Z,20.30
2018-06-24T07:53:15.421Z,19.90
2018-06-24T07:55:43.614Z,19.70
2018-06-24T07:58:11.850Z,19.90
2018-06-24T08:00:40.098Z,20.30
2018-06-24T08:03:08.363Z,20.70
2018-06-24T08:05:36.530Z,21.00
2018-06-24T08:08:04.790Z,21.10
2018-06-24T08:10:32.985Z,20.90
2018-06-24T08:13:01.187Z,21.00
2018-06-24T08:15:29.391Z,21.40
2018-06-24T08:17:57.628Z,21.50
2018-06-24T08:20:26.044Z,21.60
2018-06-24T08:25:22.809Z,21.70
2018-06-24T08:27:51.030Z,21.50
2018-06-24T08:30:19.366Z,21.40
2018-06-24T08:32:47.592Z,21.40
2018-06-24T08:35:15.853Z,21.60
2018-06-24T08:37:44.127Z,21.60
2018-06-24T08:40:12.342Z,21.70
2018-06-24T08:42:40.727Z,21.60
2018-06-24T08:45:09.091Z,21.50
2018-06-24T08:47:37.284Z,21.30
2018-06-24T08:50:05.807Z,21.40
2018-06-24T08:52:34.342Z,21.50
2018-06-24T08:55:02.565Z,21.40
2018-06-24T08:57:30.798Z,21.30
2018-06-24T09:00:05.387Z,21.40
2018-06-24T09:02:33.598Z,21.20
2018-06-24T09:05:01.815Z,21.10
2018-06-24T09:07:30.022Z,21.10
2018-06-24T09:09:58.190Z,21.30
2018-06-24T09:12:26.383Z,21.40
2018-06-24T09:14:54.579Z,21.60
2018-06-24T09:17:22.743Z,21.80
2018-06-24T09:19:50.997Z,21.90
2018-06-24T09:22:19.151Z,21.50
2018-06-24T09:24:47.326Z,21.50
2018-06-24T09:27:15.491Z,21.50
2018-06-24T09:29:43.731Z,21.50
2018-06-24T09:32:11.908Z,21.50
2018-06-24T09:34:40.095Z,21.60
2018-06-24T09:37:08.300Z,21.30
2018-06-24T09:39:36.553Z,20.80
2018-06-24T09:42:04.731Z,21.00
2018-06-24T09:44:32.998Z,21.40
2018-06-24T09:47:01.922Z,21.60
2018-06-24T09:49:30.121Z,21.70
2018-06-24T09:51:58.306Z,21.90
2018-06-24T09:54:26.554Z,22.00
2018-06-24T09:56:54.807Z,22.10
2018-06-24T09:59:23.339Z,22.20
2018-06-24T10:01:51.301Z,22.30
2018-06-24T10:04:19.498Z,22.10
2018-06-24T10:06:47.719Z,22.30
2018-06-24T10:09:15.998Z,22.10
2018-06-24T10:11:44.210Z,22.30
2018-06-24T10:14:12.407Z,22.50
2018-06-24T10:16:40.736Z,22.80
2018-06-24T10:19:08.930Z,22.70
2018-06-24T10:21:37.201Z,22.80
2018-06-24T10:24:05.470Z,22.80
2018-06-24T10:26:33.689Z,22.60
2018-06-24T10:29:01.891Z,22.40
2018-06-24T10:31:30.070Z,22.40
2018-06-24T10:33:58.250Z,22.20
2018-06-24T10:36:26.411Z,22.00
2018-06-24T10:38:54.694Z,21.90
2018-06-24T10:41:22.951Z,21.90
2018-06-24T10:43:51.126Z,21.80
2018-06-24T10:46:19.319Z,21.90
2018-06-24T10:48:47.530Z,21.90
2018-06-24T10:51:15.742Z,22.00
2018-06-24T10:53:43.944Z,22.00
2018-06-24T10:56:12.476Z,22.30
2018-06-24T10:58:40.706Z,22.10
2018-06-24T11:01:08.996Z,22.10
2018-06-24T11:03:37.233Z,22.00
2018-06-24T11:06:05.759Z,22.10
2018-06-24T11:08:33.947Z,21.80
2018-06-24T11:11:02.197Z,21.60
2018-06-24T11:13:30.378Z,21.50
2018-06-24T11:15:58.578Z,21.70
2018-06-24T11:18:26.758Z,22.00
2018-06-24T11:20:54.986Z,22.20
2018-06-24T11:23:23.187Z,22.10
2018-06-24T11:25:51.690Z,22.10
2018-06-24T11:28:20.003Z,22.10
2018-06-24T11:30:48.196Z,21.70
2018-06-24T11:33:16.387Z,21.60
2018-06-24T11:35:44.569Z,21.80
2018-06-24T11:38:12.767Z,22.00
2018-06-24T11:40:40.972Z,22.10
2018-06-24T11:43:09.235Z,22.30
2018-06-24T11:45:37.438Z,22.40
2018-06-24T11:48:05.859Z,22.40
2018-06-24T11:50:34.152Z,22.50
2018-06-24T11:53:02.323Z,22.70
2018-06-24T11:55:30.509Z,22.60
2018-06-24T11:57:58.679Z,22.80
2018-06-24T12:00:26.886Z,22.80
2018-06-24T12:02:55.060Z,22.90
2018-06-24T12:05:23.248Z,22.90
2018-06-24T12:07:51.462Z,22.90
2018-06-24T12:10:19.647Z,22.80
2018-06-24T12:12:47.827Z,23.00
2018-06-24T12:15:16.058Z,22.90
2018-06-24T12:17:44.276Z,22.80
2018-06-24T12:20:12.499Z,22.80
2018-06-24T12:22:40.651Z,22.60
2018-06-24T12:25:08.859Z,22.50
2018-06-24T12:27:37.038Z,22.60
2018-06-24T12:30:05.674Z,22.60
2018-06-24T12:32:33.851Z,22.40
2018-06-24T12:35:02.094Z,22.30
2018-06-24T12:37:30.304Z,22.30
2018-06-24T12:39:58.448Z,22.60
2018-06-24T12:42:26.723Z,22.70
2018-06-24T12:44:54.890Z,22.40
2018-06-24T12:47:23.100Z,22.40
2018-06-24T12:49:51.297Z,22.50
2018-06-24T12:52:19.471Z,22.60
2018-06-24T12:54:47.649Z,22.70
2018-06-24T12:57:15.849Z,22.80
2018-06-24T12:59:44.307Z,22.70
2018-06-24T13:02:12.299Z,22.50
2018-06-24T13:04:40.495Z,22.40
2018-06-24T13:07:08.709Z,22.30
2018-06-24T13:09:36.950Z,22.30
2018-06-24T13:12:05.314Z,21.80
2018-06-24T13:14:33.499Z,21.70
2018-06-24T13:17:01.802Z,21.70
2018-06-24T13:19:30.016Z,21.90
2018-06-24T13:21:58.274Z,21.90
2018-06-24T13:26:54.518Z,22.00
2018-06-24T13:29:22.714Z,21.20
2018-06-24T13:31:50.930Z,21.10
2018-06-24T13:34:19.114Z,20.60
2018-06-24T13:36:47.374Z,20.20
2018-06-24T13:39:15.590Z,20.40
2018-06-24T13:44:11.755Z,20.90
2018-06-24T13:46:39.938Z,20.80
2018-06-24T13:49:08.179Z,20.50
2018-06-24T13:51:36.386Z,20.60
2018-06-24T13:54:04.631Z,20.70
2018-06-24T13:56:32.866Z,20.90
2018-06-24T13:59:01.090Z,21.00
2018-06-24T14:01:29.297Z,20.80
2018-06-24T14:03:57.601Z,20.90
2018-06-24T14:06:25.766Z,20.80
2018-06-24T14:08:54.352Z,20.80
2018-06-24T14:11:22.573Z,20.70
2018-06-24T14:13:50.789Z,20.60
2018-06-24T14:16:19.042Z,20.30
2018-06-24T14:18:47.318Z,20.00
2018-06-24T14:21:15.520Z,20.30
2018-06-24T14:23:43.703Z,20.50
2018-06-24T14:26:11.992Z,20.60
2018-06-24T14:28:40.294Z,20.80
2018-06-24T14:31:08.538Z,20.80
2018-06-24T14:33:36.742Z,20.80
2018-06-24T14:36:04.967Z,20.80
2018-06-24T14:38:33.170Z,20.30
2018-06-24T14:41:01.358Z,20.00
2018-06-24T14:43:29.569Z,20.30
2018-06-24T14:45:57.743Z,20.70
2018-06-24T14:48:25.966Z,21.10
2018-06-24T14:50:54.158Z,20.80
2018-06-24T14:53:22.381Z,20.60
2018-06-24T14:55:50.620Z,20.80
2018-06-24T14:58:18.857Z,21.00
2018-06-24T15:00:47.058Z,21.30
2018-06-24T15:03:16.188Z,21.40
2018-06-24T15:05:44.370Z,21.40
2018-06-24T15:08:12.962Z,21.20
2018-06-24T15:10:41.202Z,20.90
2018-06-24T15:13:09.432Z,21.10
2018-06-24T15:15:37.634Z,21.30
2018-06-24T15:18:05.847Z,21.50
2018-06-24T15:20:34.082Z,21.50
2018-06-24T15:23:02.285Z,21.60
2018-06-24T15:25:30.495Z,21.60
2018-06-24T15:27:58.762Z,21.50
2018-06-24T15:30:26.958Z,21.60
2018-06-24T15:32:55.172Z,21.70
2018-06-24T15:35:23.393Z,21.80
2018-06-24T15:37:51.623Z,21.80
2018-06-24T15:40:19.841Z,21.90
2018-06-24T15:42:48.026Z,21.90
2018-06-24T15:45:16.290Z,22.00
2018-06-24T15:47:44.486Z,21.90
2018-06-24T15:50:12.725Z,21.60
2018-06-24T15:52:41.015Z,21.70
2018-06-24T15:55:09.214Z,21.80
2018-06-24T15:57:37.496Z,21.70
2018-06-24T16:00:05.826Z,21.70
2018-06-24T16:02:34.062Z,21.70
2018-06-24T16:05:02.285Z,21.60
2018-06-24T16:07:30.517Z,21.50
2018-06-24T16:09:58.723Z,21.30
2018-06-24T16:12:26.974Z,20.90
2018-06-24T16:14:55.224Z,20.90
2018-06-24T16:17:23.419Z,20.80
2018-06-24T16:19:51.694Z,20.80
2018-06-24T16:22:19.875Z,20.80
2018-06-24T16:24:48.063Z,20.90
2018-06-24T16:27:16.338Z,20.80
2018-06-24T16:29:44.563Z,20.80
2018-06-24T16:32:12.772Z,20.90
2018-06-24T16:34:40.958Z,20.90
2018-06-24T16:37:09.154Z,21.00
2018-06-24T16:39:37.344Z,21.00
2018-06-24T16:42:05.598Z,20.90
2018-06-24T16:44:33.818Z,20.80
2018-06-24T16:47:02.076Z,20.80
2018-06-24T16:49:30.294Z,20.70
2018-06-24T16:51:58.499Z,20.60
2018-06-24T16:54:27.137Z,20.60
2018-06-24T16:56:55.375Z,20.20
2018-06-24T16:59:23.596Z,19.60
2018-06-24T17:01:51.863Z,19.70
2018-06-24T17:04:20.270Z,19.80
2018-06-24T17:06:48.510Z,19.70
2018-06-24T17:09:16.830Z,19.70
2018-06-24T17:11:45.031Z,19.80
2018-06-24T17:14:13.284Z,19.90
2018-06-24T17:16:41.482Z,20.00
2018-06-24T17:19:09.704Z,20.10
2018-06-24T17:21:37.978Z,20.10
2018-06-24T17:24:06.286Z,20.00
2018-06-24T17:26:34.582Z,20.00
2018-06-24T17:29:02.781Z,20.00
2018-06-24T17:31:30.969Z,20.00
2018-06-24T17:33:59.174Z,19.90
2018-06-24T17:36:27.420Z,19.80
2018-06-24T17:38:55.637Z,19.70
2018-06-24T17:41:24.057Z,19.80
2018-06-24T17:43:52.261Z,19.70
2018-06-24T17:46:20.636Z,19.70
2018-06-24T17:48:49.014Z,19.60
2018-06-24T17:51:17.404Z,19.60
2018-06-24T17:53:45.687Z,19.60
2018-06-24T17:56:13.926Z,19.60
2018-06-24T17:58:42.131Z,19.60
2018-06-24T18:01:10.405Z,19.60
2018-06-24T18:03:38.864Z,19.50
2018-06-24T18:06:07.138Z,19.50
2018-06-24T18:08:35.357Z,19.50
2018-06-24T18:11:03.620Z,19.50
2018-06-24T18:13:31.899Z,19.60
2018-06-24T18:16:00.120Z,19.60
2018-06-24T18:18:28.308Z,19.60
2018-06-24T18:20:56.503Z,19.60
2018-06-24T18:23:24.781Z,19.60
2018-06-24T18:25:53.013Z,19.50
2018-06-24T18:28:21.231Z,19.50
2018-06-24T18:30:49.438Z,19.40
2018-06-24T18:33:17.755Z,19.40
2018-06-24T18:35:46.043Z,19.30
2018-06-24T18:38:14.271Z,19.30
2018-06-24T18:40:42.526Z,19.20
2018-06-24T18:43:10.783Z,19.20
2018-06-24T18:45:38.930Z,19.20
2018-06-24T18:48:07.131Z,19.10
2018-06-24T18:50:35.503Z,19.10
2018-06-24T18:53:04.331Z,19.10
2018-06-24T18:55:32.588Z,19.10
2018-06-24T18:58:00.866Z,19.10
2018-06-24T19:00:29.122Z,19.10
2018-06-24T19:02:57.418Z,19.00
2018-06-24T19:05:25.618Z,19.00
2018-06-24T19:07:53.815Z,18.90
2018-06-24T19:10:22.227Z,18.90
2018-06-24T19:12:50.612Z,18.90
2018-06-24T19:15:19.022Z,18.90
2018-06-24T19:17:47.246Z,18.90
2018-06-24T19:20:15.478Z,18.90
2018-06-24T19:22:43.738Z,18.90
2018-06-24T19:25:12.013Z,18.90
2018-06-24T19:27:40.399Z,18.90
2018-06-24T19:30:08.696Z,18.90
2018-06-24T19:32:36.924Z,18.90
2018-06-24T19:35:05.579Z,18.80
2018-06-24T19:37:33.829Z,18.80
2018-06-24T19:40:02.155Z,18.80
2018-06-24T19:42:30.396Z,18.90
2018-06-24T19:44:58.662Z,18.90
2018-06-24T19:47:26.917Z,18.90
2018-06-24T19:49:56.385Z,18.80
2018-06-24T19:52:24.682Z,18.80
2018-06-24T19:54:52.911Z,18.70
2018-06-24T19:59:49.447Z,18.80
2018-06-24T20:04:45.635Z,18.70
2018-06-24T20:07:13.842Z,18.70
2018-06-24T20:09:42.039Z,18.70
2018-06-24T20:12:10.225Z,18.60
2018-06-24T20:14:38.435Z,18.60
2018-06-24T20:17:06.633Z,18.70
2018-06-24T20:19:34.805Z,18.60
2018-06-24T20:22:03.071Z,18.60
2018-06-24T20:24:31.282Z,18.60
2018-06-24T20:26:59.565Z,18.60
2018-06-24T20:29:27.797Z,18.60
2018-06-24T20:31:56.147Z,18.50
2018-06-24T20:34:24.489Z,18.60
2018-06-24T20:39:20.886Z,18.40
2018-06-24T20:41:49.224Z,18.40
2018-06-24T20:44:17.512Z,18.40
2018-06-24T20:46:45.875Z,18.40
2018-06-24T20:49:14.102Z,18.40
2018-06-24T20:51:42.379Z,18.30
2018-06-24T20:54:10.646Z,18.20
2018-06-24T20:56:38.940Z,18.20
2018-06-24T20:59:07.217Z,18.10
2018-06-24T21:01:35.483Z,18.20
2018-06-24T21:04:03.770Z,18.10
2018-06-24T21:06:32.128Z,18.10
2018-06-24T21:09:00.406Z,18.10
2018-06-24T21:11:28.659Z,18.00
2018-06-24T21:13:56.962Z,18.00
2018-06-24T21:16:25.167Z,18.00
2018-06-24T21:18:53.540Z,18.00
2018-06-24T21:21:21.819Z,18.00
2018-06-24T21:23:50.081Z,18.00
2018-06-24T21:26:18.351Z,18.00
2018-06-24T21:28:46.595Z,18.00
2018-06-24T21:31:14.818Z,18.00
2018-06-24T21:33:43.070Z,18.00
2018-06-24T21:36:11.341Z,17.90
2018-06-24T21:38:39.795Z,17.90
2018-06-24T21:41:08.046Z,17.90
2018-06-24T21:43:36.280Z,17.90
2018-06-24T21:46:04.670Z,17.80
2018-06-24T21:48:32.879Z,17.90
2018-06-24T21:51:01.158Z,17.90
2018-06-24T21:53:29.410Z,17.70
2018-06-24T21:55:57.643Z,17.70
2018-06-24T21:58:25.858Z,17.70
2018-06-24T22:00:54.381Z,17.60
2018-06-24T22:03:22.722Z,17.50
2018-06-24T22:05:50.922Z,17.50
2018-06-24T22:08:19.143Z,17.50
2018-06-24T22:10:47.608Z,17.40
2018-06-24T22:13:15.824Z,17.50
2018-06-24T22:15:44.032Z,17.40
2018-06-24T22:18:12.276Z,17.40
2018-06-24T22:20:40.480Z,17.50
2018-06-24T22:23:08.727Z,17.60
2018-06-24T22:25:37.028Z,17.60
2018-06-24T22:28:05.662Z,17.70
2018-06-24T22:30:33.991Z,17.80
2018-06-24T22:33:02.199Z,17.80
2018-06-24T22:35:30.406Z,17.90
2018-06-24T22:37:58.651Z,17.90
2018-06-24T22:40:26.890Z,17.90
2018-06-24T22:42:55.290Z,17.90
2018-06-24T22:45:23.536Z,17.90
2018-06-24T22:47:51.726Z,17.80
2018-06-24T22:50:19.946Z,17.70
2018-06-24T22:52:48.158Z,17.60
2018-06-24T22:55:16.379Z,17.60
2018-06-24T22:57:44.630Z,17.60
2018-06-24T23:00:15.775Z,17.60
2018-06-24T23:02:44.727Z,17.60
2018-06-24T23:05:13.642Z,17.70
2018-06-24T23:07:43.815Z,17.70
2018-06-24T23:10:12.487Z,17.70
2018-06-24T23:12:40.940Z,17.60
2018-06-24T23:15:10.163Z,17.60
2018-06-24T23:17:38.703Z,17.50
2018-06-24T23:20:07.874Z,17.50
2018-06-24T23:22:36.338Z,17.50
2018-06-24T23:25:05.079Z,17.40
2018-06-24T23:27:33.559Z,17.40
2018-06-24T23:30:01.771Z,17.20
2018-06-24T23:32:30.123Z,17.20
2018-06-24T23:34:58.323Z,17.20
2018-06-24T23:37:26.589Z,17.10
2018-06-24T23:39:54.966Z,17.10
2018-06-24T23:42:23.205Z,17.10
2018-06-24T23:44:51.562Z,17.00
2018-06-24T23:47:19.869Z,16.90
2018-06-24T23:49:48.130Z,16.60
2018-06-24T23:52:16.422Z,16.30
2018-06-24T23:54:44.679Z,16.10
2018-06-24T23:57:12.907Z,16.00
2018-06-24T23:59:41.188Z,15.90
